createdAt,value
2018-11-01T00:01:35.419Z,7.90
2018-11-01T00:04:04.786Z,7.80
2018-11-01T00:06:33.631Z,7.60
2018-11-01T00:09:02.657Z,7.80
2018-11-01T00:11:31.557Z,7.30
2018-11-01T00:14:00.455Z,7.30
2018-11-01T00:16:29.454Z,7.30
2018-11-01T00:18:58.347Z,7.50
2018-11-01T00:21:28.268Z,7.60
2018-11-01T00:23:57.166Z,7.60
2018-11-01T00:26:26.053Z,7.70
2018-11-01T00:28:54.945Z,7.70
2018-11-01T00:31:23.868Z,7.90
2018-11-01T00:33:52.763Z,8.10
2018-11-01T00:36:21.679Z,8.10
2018-11-01T00:38:50.593Z,8.10
2018-11-01T00:41:19.518Z,8.10
2018-11-01T00:43:48.445Z,7.90
2018-11-01T00:46:17.354Z,7.80
2018-11-01T00:48:46.287Z,7.70
2018-11-01T00:51:15.197Z,7.50
2018-11-01T00:53:44.098Z,7.40
2018-11-01T00:56:13.017Z,7.20
2018-11-01T00:58:41.917Z,7.10
2018-11-01T01:01:10.834Z,7.00
2018-11-01T01:03:39.811Z,6.80
2018-11-01T01:06:08.703Z,6.60
2018-11-01T01:08:37.623Z,6.40
2018-11-01T01:11:06.525Z,6.30
2018-11-01T01:13:35.420Z,6.30
2018-11-01T01:16:04.333Z,6.30
2018-11-01T01:18:33.220Z,6.40
2018-11-01T01:21:02.112Z,6.30
2018-11-01T01:23:31.027Z,6.20
2018-11-01T01:26:00.079Z,6.10
2018-11-01T01:28:29.032Z,6.00
2018-11-01T01:30:57.974Z,5.90
2018-11-01T01:33:26.941Z,5.90
2018-11-01T01:35:55.845Z,5.80
2018-11-01T01:38:24.844Z,5.60
2018-11-01T01:40:53.774Z,5.80
2018-11-01T01:43:22.710Z,5.80
2018-11-01T01:45:51.801Z,5.70
2018-11-01T01:48:21.720Z,5.80
2018-11-01T01:50:51.882Z,5.90
2018-11-01T01:53:20.720Z,6.10
2018-11-01T01:55:49.618Z,6.10
2018-11-01T01:58:18.870Z,6.10
2018-11-01T02:00:47.769Z,6.10
2018-11-01T02:03:16.827Z,6.10
2018-11-01T02:05:45.711Z,6.00
2018-11-01T02:08:15.148Z,6.00
2018-11-01T02:10:44.049Z,6.00
2018-11-01T02:13:13.116Z,6.20
2018-11-01T02:15:42.012Z,6.30
2018-11-01T02:18:10.933Z,6.10
2018-11-01T02:20:39.976Z,6.10
2018-11-01T02:23:09.046Z,6.00
2018-11-01T02:25:38.069Z,5.90
2018-11-01T02:28:12.428Z,5.90
2018-11-01T02:30:41.315Z,5.80
2018-11-01T02:33:10.204Z,5.90
2018-11-01T02:35:39.136Z,5.80
2018-11-01T02:38:08.078Z,6.00
2018-11-01T02:40:36.939Z,5.70
2018-11-01T02:43:05.930Z,5.70
2018-11-01T02:45:34.827Z,5.70
2018-11-01T02:48:03.815Z,5.70
2018-11-01T02:50:32.699Z,5.60
2018-11-01T02:53:01.607Z,5.60
2018-11-01T02:55:30.486Z,5.60
2018-11-01T02:57:59.387Z,5.70
2018-11-01T03:00:28.299Z,5.80
2018-11-01T03:02:57.197Z,5.70
2018-11-01T03:05:26.077Z,5.70
2018-11-01T03:07:54.989Z,5.70
2018-11-01T03:10:23.893Z,5.60
2018-11-01T03:12:52.808Z,5.60
2018-11-01T03:15:21.693Z,5.50
2018-11-01T03:17:50.589Z,5.50
2018-11-01T03:20:19.517Z,5.50
2018-11-01T03:22:48.418Z,5.50
2018-11-01T03:25:17.320Z,5.50
2018-11-01T03:27:46.209Z,5.60
2018-11-01T03:30:15.142Z,5.60
2018-11-01T03:32:44.063Z,5.50
2018-11-01T03:35:12.975Z,5.50
2018-11-01T03:37:42.249Z,5.50
2018-11-01T03:40:12.039Z,5.50
2018-11-01T03:42:41.532Z,5.40
2018-11-01T03:45:11.760Z,5.40
2018-11-01T03:47:41.100Z,5.30
2018-11-01T03:50:10.512Z,5.30
2018-11-01T03:52:39.407Z,5.40
2018-11-01T03:55:09.653Z,5.50
2018-11-01T03:57:38.567Z,5.70
2018-11-01T04:00:10.326Z,6.20
2018-11-01T04:02:39.224Z,6.20
2018-11-01T04:05:08.124Z,6.30
2018-11-01T04:07:37.187Z,6.20
2018-11-01T04:10:06.946Z,6.30
2018-11-01T04:12:35.836Z,6.30
2018-11-01T04:15:05.989Z,6.40
2018-11-01T04:17:34.893Z,6.60
2018-11-01T04:20:03.820Z,6.60
2018-11-01T04:22:32.702Z,6.60
2018-11-01T04:25:01.630Z,6.60
2018-11-01T04:27:30.459Z,6.50
2018-11-01T04:29:59.423Z,6.40
2018-11-01T04:32:28.367Z,6.50
2018-11-01T04:34:57.476Z,6.60
2018-11-01T04:37:26.318Z,6.60
2018-11-01T04:39:55.165Z,6.60
2018-11-01T04:42:24.035Z,6.60
2018-11-01T04:44:52.909Z,6.70
2018-11-01T04:47:21.770Z,6.70
2018-11-01T04:49:50.612Z,6.70
2018-11-01T04:52:19.498Z,6.70
2018-11-01T04:54:48.344Z,6.70
2018-11-01T04:57:17.236Z,6.80
2018-11-01T04:59:46.072Z,6.80
2018-11-01T05:02:14.943Z,6.70
2018-11-01T05:04:43.807Z,6.70
2018-11-01T05:07:12.644Z,6.70
2018-11-01T05:09:41.545Z,6.70
2018-11-01T05:12:10.428Z,6.80
2018-11-01T05:14:39.400Z,6.90
2018-11-01T05:17:08.247Z,6.90
2018-11-01T05:19:37.082Z,6.90
2018-11-01T05:22:05.963Z,7.00
2018-11-01T05:24:34.875Z,6.90
2018-11-01T05:27:03.735Z,6.90
2018-11-01T05:29:32.637Z,6.80
2018-11-01T05:32:01.505Z,6.70
2018-11-01T05:34:30.378Z,6.80
2018-11-01T05:36:59.210Z,6.70
2018-11-01T05:39:28.061Z,6.70
2018-11-01T05:41:56.985Z,6.70
2018-11-01T05:44:25.775Z,6.70
2018-11-01T05:46:54.627Z,6.70
2018-11-01T05:49:23.485Z,6.70
2018-11-01T05:51:52.348Z,6.70
2018-11-01T05:54:21.207Z,6.70
2018-11-01T05:56:50.097Z,6.90
2018-11-01T05:59:18.937Z,6.90
2018-11-01T06:01:53.831Z,6.90
2018-11-01T06:04:22.681Z,7.10
2018-11-01T06:06:51.560Z,7.20
2018-11-01T06:09:25.700Z,7.30
2018-11-01T06:11:54.552Z,7.50
2018-11-01T06:14:23.403Z,8.00
2018-11-01T06:16:52.252Z,8.10
2018-11-01T06:19:21.093Z,8.20
2018-11-01T06:21:49.991Z,8.30
2018-11-01T06:24:18.840Z,8.40
2018-11-01T06:26:47.718Z,8.50
2018-11-01T06:29:16.583Z,8.60
2018-11-01T06:31:45.448Z,8.70
2018-11-01T06:34:26.643Z,8.80
2018-11-01T06:36:55.691Z,8.90
2018-11-01T06:39:24.548Z,9.00
2018-11-01T06:41:53.471Z,9.00
2018-11-01T06:44:22.373Z,8.90
2018-11-01T06:46:51.172Z,9.00
2018-11-01T06:49:20.476Z,9.00
2018-11-01T06:51:49.328Z,8.90
2018-11-01T06:54:18.243Z,8.90
2018-11-01T06:56:47.080Z,8.90
2018-11-01T06:59:16.291Z,9.10
2018-11-01T07:01:45.015Z,9.20
2018-11-01T07:04:13.897Z,9.20
2018-11-01T07:06:42.776Z,9.20
2018-11-01T07:09:13.090Z,9.40
2018-11-01T07:11:42.303Z,9.30
2018-11-01T07:14:11.220Z,9.40
2018-11-01T07:16:40.075Z,9.40
2018-11-01T07:19:09.211Z,9.50
2018-11-01T07:21:38.066Z,9.50
2018-11-01T07:24:06.977Z,9.60
2018-11-01T07:26:36.022Z,9.70
2018-11-01T07:29:04.972Z,9.70
2018-11-01T07:31:33.860Z,9.90
2018-11-01T07:34:02.728Z,9.90
2018-11-01T07:36:31.644Z,9.70
2018-11-01T07:39:00.505Z,9.70
2018-11-01T07:41:29.379Z,9.60
2018-11-01T07:43:58.273Z,9.40
2018-11-01T07:46:27.120Z,9.20
2018-11-01T07:48:56.024Z,9.40
2018-11-01T07:51:24.875Z,9.40
2018-11-01T07:53:53.772Z,9.40
2018-11-01T07:56:22.708Z,9.60
2018-11-01T07:58:51.548Z,9.70
2018-11-01T08:01:20.387Z,9.80
2018-11-01T08:03:49.280Z,9.90
2018-11-01T08:06:18.122Z,9.90
2018-11-01T08:08:47.016Z,9.70
2018-11-01T08:11:15.871Z,10.00
2018-11-01T08:13:44.730Z,10.10
2018-11-01T08:16:13.612Z,10.20
2018-11-01T08:18:42.609Z,10.30
2018-11-01T08:21:11.673Z,10.30
2018-11-01T08:23:40.335Z,10.20
2018-11-01T08:26:09.235Z,10.40
2018-11-01T08:28:38.109Z,10.40
2018-11-01T08:31:07.000Z,10.40
2018-11-01T08:33:35.852Z,10.20
2018-11-01T08:36:04.764Z,10.30
2018-11-01T08:38:33.625Z,10.30
2018-11-01T08:41:02.545Z,10.50
2018-11-01T08:43:31.364Z,10.50
2018-11-01T08:46:00.268Z,10.50
2018-11-01T08:48:29.142Z,10.60
2018-11-01T08:50:57.988Z,10.80
2018-11-01T08:53:26.865Z,10.80
2018-11-01T08:55:55.782Z,10.90
2018-11-01T08:58:24.612Z,11.10
2018-11-01T09:00:53.493Z,11.00
2018-11-01T09:03:22.339Z,10.90
2018-11-01T09:05:51.203Z,10.90
2018-11-01T09:08:20.112Z,10.90
2018-11-01T09:10:48.970Z,11.00
2018-11-01T09:13:17.913Z,11.00
2018-11-01T09:15:46.685Z,10.90
2018-11-01T09:18:15.556Z,10.90
2018-11-01T09:20:44.453Z,10.90
2018-11-01T09:23:13.300Z,11.10
2018-11-01T09:25:42.185Z,11.20
2018-11-01T09:28:11.052Z,11.20
2018-11-01T09:30:39.945Z,11.20
2018-11-01T09:33:08.810Z,11.20
2018-11-01T09:35:37.777Z,11.20
2018-11-01T09:38:06.630Z,11.10
2018-11-01T09:40:36.215Z,10.90
2018-11-01T09:43:05.210Z,10.90
2018-11-01T09:45:34.063Z,11.00
2018-11-01T09:48:02.913Z,10.90
2018-11-01T09:50:31.773Z,10.80
2018-11-01T09:53:00.623Z,10.90
2018-11-01T09:55:29.505Z,11.00
2018-11-01T09:57:58.355Z,11.00
2018-11-01T10:00:27.215Z,10.90
2018-11-01T10:02:56.197Z,10.80
2018-11-01T10:05:25.052Z,10.80
2018-11-01T10:07:53.912Z,10.70
2018-11-01T10:10:22.768Z,10.60
2018-11-01T10:12:51.616Z,10.80
2018-11-01T10:15:20.500Z,10.70
2018-11-01T10:17:49.703Z,10.80
2018-11-01T10:20:18.257Z,10.70
2018-11-01T10:22:47.567Z,11.00
2018-11-01T10:25:16.490Z,11.00
2018-11-01T10:27:45.387Z,11.00
2018-11-01T10:30:15.653Z,10.60
2018-11-01T10:32:44.849Z,10.60
2018-11-01T10:35:14.296Z,10.60
2018-11-01T10:37:43.164Z,10.60
2018-11-01T10:40:17.363Z,10.80
2018-11-01T10:42:46.216Z,11.10
2018-11-01T10:45:15.071Z,11.20
2018-11-01T10:47:44.046Z,11.30
2018-11-01T10:50:16.811Z,11.00
2018-11-01T10:52:47.884Z,11.10
2018-11-01T10:55:16.839Z,11.30
2018-11-01T10:57:45.708Z,11.40
2018-11-01T11:00:20.092Z,11.60
2018-11-01T11:02:50.234Z,11.60
2018-11-01T11:05:20.230Z,11.60
2018-11-01T11:07:49.336Z,11.60
2018-11-01T11:10:18.572Z,11.80
2018-11-01T11:12:47.484Z,11.80
2018-11-01T11:15:16.342Z,12.20
2018-11-01T11:17:45.215Z,12.30
2018-11-01T11:20:14.256Z,12.50
2018-11-01T11:22:42.964Z,12.60
2018-11-01T11:25:12.270Z,12.40
2018-11-01T11:27:41.484Z,12.40
2018-11-01T11:30:11.219Z,12.50
2018-11-01T11:32:40.099Z,12.60
2018-11-01T11:35:09.820Z,12.60
2018-11-01T11:37:38.693Z,12.60
2018-11-01T11:40:08.960Z,12.50
2018-11-01T11:42:38.048Z,12.50
2018-11-01T11:45:07.475Z,12.50
2018-11-01T11:47:36.351Z,12.60
2018-11-01T11:50:06.212Z,12.50
2018-11-01T11:52:35.070Z,12.50
2018-11-01T11:55:04.044Z,12.60
2018-11-01T11:57:32.908Z,12.60
2018-11-01T12:00:01.769Z,12.40
2018-11-01T12:02:30.750Z,12.60
2018-11-01T12:04:59.548Z,12.60
2018-11-01T12:07:28.434Z,12.90
2018-11-01T12:09:57.301Z,12.80
2018-11-01T12:12:26.215Z,13.00
2018-11-01T12:14:55.072Z,13.10
2018-11-01T12:17:23.953Z,13.30
2018-11-01T12:19:52.817Z,13.30
2018-11-01T12:22:21.747Z,13.20
2018-11-01T12:24:50.524Z,13.10
2018-11-01T12:27:19.393Z,13.20
2018-11-01T12:29:48.268Z,13.30
2018-11-01T12:32:17.145Z,13.30
2018-11-01T12:34:46.036Z,13.20
2018-11-01T12:37:14.959Z,13.30
2018-11-01T12:39:43.804Z,13.30
2018-11-01T12:42:12.721Z,13.20
2018-11-01T12:44:41.579Z,13.20
2018-11-01T12:47:10.436Z,13.00
2018-11-01T12:49:39.327Z,12.70
2018-11-01T12:52:09.300Z,12.40
2018-11-01T12:54:38.157Z,12.40
2018-11-01T12:57:07.141Z,12.50
2018-11-01T12:59:36.008Z,12.50
2018-11-01T13:02:05.268Z,12.70
2018-11-01T13:04:34.132Z,12.60
2018-11-01T13:07:03.015Z,12.70
2018-11-01T13:09:31.890Z,12.50
2018-11-01T13:12:00.770Z,12.50
2018-11-01T13:14:29.605Z,12.60
2018-11-01T13:16:58.777Z,12.30
2018-11-01T13:19:27.636Z,12.30
2018-11-01T13:21:57.096Z,12.40
2018-11-01T13:24:26.618Z,12.10
2018-11-01T13:26:55.855Z,12.20
2018-11-01T13:29:25.089Z,12.30
2018-11-01T13:31:53.957Z,12.40
2018-11-01T13:34:23.263Z,12.20
2018-11-01T13:36:52.370Z,12.10
2018-11-01T13:39:21.570Z,11.60
2018-11-01T13:41:50.615Z,11.90
2018-11-01T13:44:19.784Z,11.80
2018-11-01T13:46:49.076Z,11.90
2018-11-01T13:49:18.332Z,12.00
2018-11-01T13:51:51.611Z,12.20
2018-11-01T13:54:20.774Z,11.90
2018-11-01T13:56:50.023Z,11.70
2018-11-01T13:59:19.145Z,11.60
2018-11-01T14:01:48.273Z,11.60
2018-11-01T14:04:17.225Z,11.60
2018-11-01T14:06:46.179Z,11.70
2018-11-01T14:09:15.187Z,11.80
2018-11-01T14:11:44.670Z,11.90
2018-11-01T14:14:14.065Z,11.80
2018-11-01T14:16:42.459Z,11.60
2018-11-01T14:19:11.330Z,11.70
2018-11-01T14:21:40.206Z,11.80
2018-11-01T14:24:09.075Z,11.30
2018-11-01T14:26:37.976Z,11.40
2018-11-01T14:29:06.880Z,11.50
2018-11-01T14:31:35.928Z,11.40
2018-11-01T14:34:05.040Z,11.30
2018-11-01T14:36:34.053Z,11.50
2018-11-01T14:39:03.205Z,11.90
2018-11-01T14:41:32.196Z,13.40
2018-11-01T14:44:01.295Z,14.60
2018-11-01T14:46:30.340Z,15.60
2018-11-01T14:48:59.252Z,16.40
2018-11-01T14:51:28.121Z,16.30
2018-11-01T14:53:57.701Z,16.40
2018-11-01T14:56:27.309Z,16.80
2018-11-01T14:58:57.277Z,17.70
2018-11-01T15:01:24.555Z,17.30
2018-11-01T15:03:53.392Z,17.00
2018-11-01T15:06:22.400Z,18.00
2018-11-01T15:08:51.149Z,16.90
2018-11-01T15:11:20.054Z,16.70
2018-11-01T15:13:48.912Z,16.80
2018-11-01T15:16:17.762Z,18.00
2018-11-01T15:18:46.621Z,17.40
2018-11-01T15:21:15.710Z,15.70
2018-11-01T15:23:44.567Z,15.50
2018-11-01T15:26:13.596Z,15.10
2018-11-01T15:28:42.481Z,14.50
2018-11-01T15:31:11.300Z,14.00
2018-11-01T15:33:40.367Z,13.50
2018-11-01T15:36:09.070Z,13.00
2018-11-01T15:38:37.928Z,12.80
2018-11-01T15:41:10.961Z,12.80
2018-11-01T15:43:40.048Z,12.40
2018-11-01T15:46:09.634Z,12.20
2018-11-01T15:48:38.732Z,11.90
2018-11-01T15:51:08.436Z,11.80
2018-11-01T15:53:37.528Z,11.70
2018-11-01T15:56:06.384Z,11.40
2018-11-01T15:58:35.243Z,11.00
2018-11-01T16:01:04.327Z,10.80
2018-11-01T16:03:33.255Z,10.60
2018-11-01T16:06:02.163Z,10.40
2018-11-01T16:08:31.020Z,10.20
2018-11-01T16:10:59.876Z,10.10
2018-11-01T16:13:28.743Z,9.80
2018-11-01T16:15:57.636Z,9.60
2018-11-01T16:18:26.574Z,9.50
2018-11-01T16:20:55.483Z,9.30
2018-11-01T16:23:24.358Z,9.00
2018-11-01T16:25:53.208Z,8.90
2018-11-01T16:28:22.980Z,8.80
2018-11-01T16:30:51.826Z,8.80
2018-11-01T16:33:20.681Z,8.80
2018-11-01T16:35:49.541Z,8.80
2018-11-01T16:38:18.417Z,8.80
2018-11-01T16:40:47.255Z,8.70
2018-11-01T16:43:16.113Z,8.70
2018-11-01T16:45:44.999Z,8.60
2018-11-01T16:48:13.844Z,8.60
2018-11-01T16:50:42.697Z,8.50
2018-11-01T16:53:11.548Z,8.50
2018-11-01T16:55:40.391Z,8.40
2018-11-01T16:58:09.248Z,8.30
2018-11-01T17:00:38.185Z,8.30
2018-11-01T17:03:06.988Z,8.00
2018-11-01T17:05:35.869Z,7.80
2018-11-01T17:08:05.003Z,7.80
2018-11-01T17:10:33.868Z,7.80
2018-11-01T17:13:05.070Z,7.80
2018-11-01T17:15:34.651Z,7.70
2018-11-01T17:18:04.440Z,7.70
2018-11-01T17:20:33.580Z,7.70
2018-11-01T17:23:02.497Z,7.60
2018-11-01T17:25:31.351Z,7.50
2018-11-01T17:28:00.224Z,7.50
2018-11-01T17:30:29.220Z,7.50
2018-11-01T17:32:58.704Z,7.40
2018-11-01T17:35:27.548Z,7.40
2018-11-01T17:37:56.457Z,7.30
2018-11-01T17:40:25.330Z,7.10
2018-11-01T17:42:54.212Z,7.00
2018-11-01T17:45:23.124Z,6.90
2018-11-01T17:47:51.921Z,7.00
2018-11-01T17:50:20.780Z,7.10
2018-11-01T17:52:49.900Z,7.00
2018-11-01T17:55:18.910Z,7.00
2018-11-01T17:57:47.996Z,7.00
2018-11-01T18:00:17.223Z,6.90
2018-11-01T18:02:46.251Z,6.90
2018-11-01T18:05:15.173Z,6.90
2018-11-01T18:07:44.194Z,6.70
2018-11-01T18:10:13.711Z,6.60
2018-11-01T18:12:42.612Z,6.60
2018-11-01T18:15:11.667Z,6.60
2018-11-01T18:17:40.601Z,6.50
2018-11-01T18:20:10.605Z,6.50
2018-11-01T18:22:39.803Z,6.30
2018-11-01T18:25:10.318Z,6.20
2018-11-01T18:27:39.218Z,6.20
2018-11-01T18:30:10.640Z,6.20
2018-11-01T18:32:41.601Z,6.40
2018-11-01T18:35:11.112Z,6.30
2018-11-01T18:37:40.772Z,6.20
2018-11-01T18:40:12.181Z,6.10
2018-11-01T18:42:41.148Z,6.00
2018-11-01T18:45:11.328Z,6.00
2018-11-01T18:47:40.256Z,5.90
2018-11-01T18:50:10.608Z,6.10
2018-11-01T18:52:39.644Z,6.10
2018-11-01T18:55:09.622Z,6.20
2018-11-01T18:57:38.673Z,6.20
2018-11-01T19:00:12.437Z,6.10
2018-11-01T19:02:41.241Z,6.00
2018-11-01T19:05:10.916Z,6.00
2018-11-01T19:07:42.244Z,6.00
2018-11-01T19:10:11.975Z,6.00
2018-11-01T19:12:40.924Z,6.00
2018-11-01T19:15:11.175Z,5.90
2018-11-01T19:17:40.819Z,5.70
2018-11-01T19:20:10.685Z,5.90
2018-11-01T19:22:39.812Z,5.80
2018-11-01T19:25:09.472Z,5.80
2018-11-01T19:27:38.528Z,5.80
2018-11-01T19:30:08.973Z,5.70
2018-11-01T19:32:37.855Z,5.70
2018-11-01T19:35:07.840Z,5.50
2018-11-01T19:37:36.859Z,5.40
2018-11-01T19:40:08.572Z,5.50
2018-11-01T19:42:37.434Z,5.50
2018-11-01T19:45:07.135Z,5.60
2018-11-01T19:47:36.419Z,5.40
2018-11-01T19:50:05.914Z,5.30
2018-11-01T19:52:34.760Z,5.20
2018-11-01T19:55:03.675Z,5.30
2018-11-01T19:57:32.592Z,5.30
2018-11-01T20:00:01.820Z,5.20
2018-11-01T20:02:31.120Z,5.10
2018-11-01T20:04:59.957Z,5.10
2018-11-01T20:07:28.871Z,5.00
2018-11-01T20:09:57.779Z,5.00
2018-11-01T20:12:26.640Z,4.80
2018-11-01T20:14:55.746Z,4.60
2018-11-01T20:17:24.592Z,4.50
2018-11-01T20:19:53.475Z,4.50
2018-11-01T20:22:22.336Z,4.40
2018-11-01T20:24:51.243Z,4.40
2018-11-01T20:27:20.196Z,4.50
2018-11-01T20:29:49.012Z,4.60
2018-11-01T20:32:17.876Z,4.70
2018-11-01T20:34:46.740Z,5.10
2018-11-01T20:37:15.730Z,4.80
2018-11-01T20:39:44.491Z,4.70
2018-11-01T20:42:13.359Z,4.60
2018-11-01T20:44:42.222Z,4.60
2018-11-01T20:47:11.100Z,4.50
2018-11-01T20:49:39.962Z,4.40
2018-11-01T20:52:08.808Z,4.40
2018-11-01T20:54:37.710Z,4.40
2018-11-01T20:57:06.621Z,4.30
2018-11-01T20:59:35.555Z,4.30
2018-11-01T21:02:04.517Z,4.30
2018-11-01T21:04:33.461Z,4.40
2018-11-01T21:07:02.305Z,4.50
2018-11-01T21:09:31.171Z,4.30
2018-11-01T21:12:00.130Z,4.20
2018-11-01T21:14:28.964Z,4.30
2018-11-01T21:16:57.967Z,4.30
2018-11-01T21:19:26.719Z,4.30
2018-11-01T21:21:55.585Z,4.30
2018-11-01T21:24:24.473Z,4.30
2018-11-01T21:26:53.344Z,4.30
2018-11-01T21:29:22.259Z,4.30
2018-11-01T21:31:51.077Z,4.20
2018-11-01T21:34:19.960Z,4.00
2018-11-01T21:36:48.809Z,4.10
2018-11-01T21:39:30.147Z,4.10
2018-11-01T21:42:00.987Z,4.10
2018-11-01T21:44:29.867Z,4.00
2018-11-01T21:46:58.755Z,3.90
2018-11-01T21:49:27.695Z,4.00
2018-11-01T21:51:56.554Z,4.10
2018-11-01T21:54:25.541Z,4.10
2018-11-01T21:56:54.407Z,4.10
2018-11-01T21:59:23.300Z,4.10
2018-11-01T22:01:52.170Z,4.20
2018-11-01T22:04:21.116Z,4.50
2018-11-01T22:06:49.967Z,4.00
2018-11-01T22:09:18.879Z,4.10
2018-11-01T22:11:47.742Z,4.00
2018-11-01T22:14:16.592Z,3.80
2018-11-01T22:16:45.483Z,3.70
2018-11-01T22:19:14.367Z,3.50
2018-11-01T22:21:43.519Z,3.50
2018-11-01T22:24:12.391Z,3.50
2018-11-01T22:26:41.302Z,3.60
2018-11-01T22:29:10.212Z,3.60
2018-11-01T22:31:39.068Z,3.60
2018-11-01T22:34:07.943Z,3.70
2018-11-01T22:36:36.823Z,3.80
2018-11-01T22:39:07.664Z,3.60
2018-11-01T22:41:36.592Z,3.60
2018-11-01T22:44:05.457Z,3.90
2018-11-01T22:46:34.356Z,4.10
2018-11-01T22:49:07.085Z,4.00
2018-11-01T22:51:36.621Z,4.10
2018-11-01T22:54:08.650Z,4.00
2018-11-01T22:56:38.001Z,3.90
2018-11-01T22:59:07.134Z,4.20
2018-11-01T23:01:36.957Z,4.40
2018-11-01T23:04:06.424Z,4.40
2018-11-01T23:06:35.382Z,4.50
2018-11-01T23:09:06.579Z,4.50
2018-11-01T23:11:36.651Z,4.60
2018-11-01T23:14:05.804Z,5.10
2018-11-01T23:16:34.905Z,4.70
2018-11-01T23:19:04.408Z,4.70
2018-11-01T23:21:33.537Z,4.70
2018-11-01T23:24:03.291Z,4.70
2018-11-01T23:26:32.304Z,4.60
2018-11-01T23:29:01.228Z,4.70
2018-11-01T23:31:30.158Z,4.70
2018-11-01T23:33:59.995Z,4.80
2018-11-01T23:36:28.154Z,4.80
2018-11-01T23:39:02.338Z,4.80
2018-11-01T23:41:36.588Z,4.80
2018-11-01T23:44:10.700Z,4.80
2018-11-01T23:46:45.016Z,4.70
2018-11-01T23:49:16.986Z,4.70
2018-11-01T23:51:50.107Z,4.70
2018-11-01T23:54:19.051Z,4.80
2018-11-01T23:56:47.970Z,4.70
2018-11-01T23:59:16.968Z,4.70
